sensor_id;sensor_type;location;lat;lon;timestamp;pressure;altitude;pressure_sealevel;temperature;humidity
70982;BME280;58640;51.320;9.456;2022-12-07T00:01:31;99304.44;;;2.17;96.06
70982;BME280;58640;51.320;9.456;2022-12-07T00:03:59;99304.44;;;2.17;95.83
70982;BME280;58640;51.320;9.456;2022-12-07T00:06:39;99313.22;;;2.29;95.12
70982;BME280;58640;51.320;9.456;2022-12-07T00:09:05;99301.53;;;2.20;95.40
70982;BME280;58640;51.320;9.456;2022-12-07T00:11:31;99293.13;;;2.15;95.62
70982;BME280;58640;51.320;9.456;2022-12-07T00:13:59;99291.47;;;2.03;96.71
70982;BME280;58640;51.320;9.456;2022-12-07T00:16:27;99297.75;;;2.02;97.49
70982;BME280;58640;51.320;9.456;2022-12-07T00:18:53;99283.09;;;2.19;96.52
70982;BME280;58640;51.320;9.456;2022-12-07T00:21:21;99285.19;;;2.15;97.50
70982;BME280;58640;51.320;9.456;2022-12-07T00:23:48;99281.28;;;2.19;97.18
70982;BME280;58640;51.320;9.456;2022-12-07T00:26:18;99279.78;;;2.06;97.85
70982;BME280;58640;51.320;9.456;2022-12-07T00:28:49;99272.59;;;2.17;97.16
70982;BME280;58640;51.320;9.456;2022-12-07T00:31:16;99266.59;;;2.15;97.35
70982;BME280;58640;51.320;9.456;2022-12-07T00:33:43;99274.50;;;2.06;98.22
70982;BME280;58640;51.320;9.456;2022-12-07T00:36:11;99267.41;;;1.95;98.84
70982;BME280;58640;51.320;9.456;2022-12-07T00:38:38;99269.06;;;2.07;98.60
70982;BME280;58640;51.320;9.456;2022-12-07T00:41:06;99267.69;;;2.13;97.50
70982;BME280;58640;51.320;9.456;2022-12-07T00:43:32;99258.22;;;1.99;98.27
70982;BME280;58640;51.320;9.456;2022-12-07T00:45:57;99259.41;;;2.06;98.45
70982;BME280;58640;51.320;9.456;2022-12-07T00:48:23;99260.03;;;1.99;98.91
70982;BME280;58640;51.320;9.456;2022-12-07T00:50:49;99261.44;;;2.03;98.79
70982;BME280;58640;51.320;9.456;2022-12-07T00:53:15;99252.94;;;1.99;99.14
70982;BME280;58640;51.320;9.456;2022-12-07T00:55:41;99247.53;;;1.90;99.78
70982;BME280;58640;51.320;9.456;2022-12-07T00:58:06;99242.81;;;1.93;100.00
70982;BME280;58640;51.320;9.456;2022-12-07T01:00:32;99240.63;;;1.98;99.27
70982;BME280;58640;51.320;9.456;2022-12-07T01:02:58;99242.88;;;2.03;99.47
70982;BME280;58640;51.320;9.456;2022-12-07T01:05:24;99250.16;;;2.01;99.68
70982;BME280;58640;51.320;9.456;2022-12-07T01:07:49;99246.50;;;2.02;99.67
70982;BME280;58640;51.320;9.456;2022-12-07T01:10:14;99247.69;;;2.09;99.79
70982;BME280;58640;51.320;9.456;2022-12-07T01:12:40;99248.84;;;2.16;99.33
70982;BME280;58640;51.320;9.456;2022-12-07T01:15:07;99245.13;;;2.18;99.04
70982;BME280;58640;51.320;9.456;2022-12-07T01:17:32;99232.81;;;2.17;99.25
70982;BME280;58640;51.320;9.456;2022-12-07T01:19:57;99236.25;;;2.08;99.96
70982;BME280;58640;51.320;9.456;2022-12-07T01:22:23;99229.47;;;2.15;99.56
70982;BME280;58640;51.320;9.456;2022-12-07T01:24:48;99221.13;;;2.20;99.00
70982;BME280;58640;51.320;9.456;2022-12-07T01:27:14;99228.50;;;2.16;99.16
70982;BME280;58640;51.320;9.456;2022-12-07T01:29:39;99231.00;;;2.18;99.34
70982;BME280;58640;51.320;9.456;2022-12-07T01:32:05;99229.34;;;2.17;99.23
70982;BME280;58640;51.320;9.456;2022-12-07T01:34:30;99232.44;;;2.22;99.20
70982;BME280;58640;51.320;9.456;2022-12-07T01:36:56;99238.50;;;2.13;99.96
70982;BME280;58640;51.320;9.456;2022-12-07T01:39:21;99230.41;;;2.14;99.90
70982;BME280;58640;51.320;9.456;2022-12-07T01:41:47;99234.56;;;2.07;100.00
70982;BME280;58640;51.320;9.456;2022-12-07T01:44:29;99239.47;;;2.12;100.00
70982;BME280;58640;51.320;9.456;2022-12-07T01:46:59;99234.38;;;2.20;100.00
70982;BME280;58640;51.320;9.456;2022-12-07T01:54:45;99236.13;;;2.30;99.82
70982;BME280;58640;51.320;9.456;2022-12-07T01:57:13;99231.34;;;2.24;100.00
70982;BME280;58640;51.320;9.456;2022-12-07T01:59:40;99234.19;;;2.32;100.00
70982;BME280;58640;51.320;9.456;2022-12-07T02:05:05;99226.88;;;2.45;99.50
70982;BME280;58640;51.320;9.456;2022-12-07T02:07:36;99220.41;;;2.38;100.00
70982;BME280;58640;51.320;9.456;2022-12-07T02:10:18;99217.28;;;2.54;99.83
70982;BME280;58640;51.320;9.456;2022-12-07T02:12:48;99223.25;;;2.46;100.00
70982;BME280;58640;51.320;9.456;2022-12-07T02:15:14;99220.41;;;2.38;100.00
70982;BME280;58640;51.320;9.456;2022-12-07T02:20:51;99218.78;;;2.26;100.00
70982;BME280;58640;51.320;9.456;2022-12-07T02:26:09;99209.47;;;2.32;100.00
70982;BME280;58640;51.320;9.456;2022-12-07T02:31:34;99211.34;;;2.41;100.00
70982;BME280;58640;51.320;9.456;2022-12-07T02:34:08;99199.69;;;2.32;100.00
70982;BME280;58640;51.320;9.456;2022-12-07T02:36:40;99206.09;;;2.50;100.00
70982;BME280;58640;51.320;9.456;2022-12-07T02:39:15;99205.66;;;2.45;100.00
70982;BME280;58640;51.320;9.456;2022-12-07T02:41:44;99202.81;;;2.37;100.00
70982;BME280;58640;51.320;9.456;2022-12-07T02:44:14;99204.34;;;2.40;100.00
70982;BME280;58640;51.320;9.456;2022-12-07T02:46:51;99200.78;;;2.30;100.00
70982;BME280;58640;51.320;9.456;2022-12-07T02:49:18;99200.53;;;2.33;100.00
70982;BME280;58640;51.320;9.456;2022-12-07T02:51:45;99207.53;;;2.34;100.00
70982;BME280;58640;51.320;9.456;2022-12-07T02:54:16;99204.59;;;2.37;100.00
70982;BME280;58640;51.320;9.456;2022-12-07T02:57:11;99205.59;;;2.36;100.00
70982;BME280;58640;51.320;9.456;2022-12-07T03:02:31;99210.44;;;2.81;100.00
70982;BME280;58640;51.320;9.456;2022-12-07T03:13:14;99201.81;;;2.89;100.00
70982;BME280;58640;51.320;9.456;2022-12-07T03:15:51;99205.13;;;2.81;100.00
70982;BME280;58640;51.320;9.456;2022-12-07T03:18:22;99187.97;;;2.85;100.00
70982;BME280;58640;51.320;9.456;2022-12-07T03:20:51;99185.97;;;2.78;100.00
70982;BME280;58640;51.320;9.456;2022-12-07T03:23:19;99191.41;;;2.76;100.00
70982;BME280;58640;51.320;9.456;2022-12-07T03:25:49;99195.50;;;2.80;100.00
70982;BME280;58640;51.320;9.456;2022-12-07T03:28:19;99189.47;;;2.78;100.00
70982;BME280;58640;51.320;9.456;2022-12-07T03:30:50;99191.72;;;2.83;100.00
70982;BME280;58640;51.320;9.456;2022-12-07T03:33:27;99191.00;;;2.81;100.00
70982;BME280;58640;51.320;9.456;2022-12-07T03:39:02;99205.72;;;2.85;100.00
70982;BME280;58640;51.320;9.456;2022-12-07T03:41:33;99196.56;;;3.08;100.00
70982;BME280;58640;51.320;9.456;2022-12-07T03:44:00;99201.69;;;3.00;100.00
70982;BME280;58640;51.320;9.456;2022-12-07T03:52:31;99197.81;;;3.04;100.00
70982;BME280;58640;51.320;9.456;2022-12-07T03:55:14;99199.94;;;3.10;100.00
70982;BME280;58640;51.320;9.456;2022-12-07T03:57:43;99192.09;;;3.09;100.00
70982;BME280;58640;51.320;9.456;2022-12-07T04:00:11;99186.78;;;3.09;100.00
70982;BME280;58640;51.320;9.456;2022-12-07T04:02:37;99181.88;;;3.04;100.00
70982;BME280;58640;51.320;9.456;2022-12-07T04:05:03;99183.03;;;3.11;100.00
70982;BME280;58640;51.320;9.456;2022-12-07T04:07:28;99185.97;;;3.18;100.00
70982;BME280;58640;51.320;9.456;2022-12-07T04:09:54;99180.25;;;3.13;100.00
70982;BME280;58640;51.320;9.456;2022-12-07T04:12:20;99185.16;;;3.17;100.00
70982;BME280;58640;51.320;9.456;2022-12-07T04:14:46;99180.28;;;3.32;100.00
70982;BME280;58640;51.320;9.456;2022-12-07T04:17:11;99178.28;;;3.24;100.00
70982;BME280;58640;51.320;9.456;2022-12-07T04:19:37;99185.72;;;3.21;100.00
70982;BME280;58640;51.320;9.456;2022-12-07T04:22:04;99183.19;;;3.19;100.00
70982;BME280;58640;51.320;9.456;2022-12-07T04:24:30;99186.41;;;3.32;100.00
70982;BME280;58640;51.320;9.456;2022-12-07T04:26:55;99184.72;;;3.22;100.00
70982;BME280;58640;51.320;9.456;2022-12-07T04:29:21;99186.53;;;3.21;100.00
70982;BME280;58640;51.320;9.456;2022-12-07T04:31:47;99181.63;;;3.17;100.00
70982;BME280;58640;51.320;9.456;2022-12-07T04:34:16;99173.78;;;3.15;100.00
70982;BME280;58640;51.320;9.456;2022-12-07T04:36:42;99178.97;;;3.17;100.00
70982;BME280;58640;51.320;9.456;2022-12-07T04:39:13;99187.94;;;3.16;100.00
70982;BME280;58640;51.320;9.456;2022-12-07T04:41:42;99185.19;;;3.36;100.00
70982;BME280;58640;51.320;9.456;2022-12-07T04:44:08;99190.75;;;3.24;100.00
70982;BME280;58640;51.320;9.456;2022-12-07T04:46:33;99196.88;;;3.24;100.00
70982;BME280;58640;51.320;9.456;2022-12-07T04:48:59;99196.78;;;3.35;99.83
70982;BME280;58640;51.320;9.456;2022-12-07T04:51:27;99183.53;;;3.54;98.72
70982;BME280;58640;51.320;9.456;2022-12-07T04:53:53;99196.25;;;3.41;99.19
70982;BME280;58640;51.320;9.456;2022-12-07T04:56:18;99196.22;;;3.32;99.23
70982;BME280;58640;51.320;9.456;2022-12-07T04:58:45;99184.53;;;3.63;95.90
70982;BME280;58640;51.320;9.456;2022-12-07T05:01:12;99192.50;;;3.53;96.80
70982;BME280;58640;51.320;9.456;2022-12-07T05:03:37;99183.00;;;3.60;96.57
70982;BME280;58640;51.320;9.456;2022-12-07T05:06:04;99191.78;;;3.51;96.99
70982;BME280;58640;51.320;9.456;2022-12-07T05:08:29;99196.28;;;3.60;95.51
70982;BME280;58640;51.320;9.456;2022-12-07T05:10:54;99189.13;;;3.70;95.15
70982;BME280;58640;51.320;9.456;2022-12-07T05:13:20;99186.34;;;3.62;95.45
70982;BME280;58640;51.320;9.456;2022-12-07T05:15:47;99197.94;;;3.52;95.39
70982;BME280;58640;51.320;9.456;2022-12-07T05:18:12;99202.81;;;3.47;95.18
70982;BME280;58640;51.320;9.456;2022-12-07T05:20:39;99193.63;;;3.51;94.93
70982;BME280;58640;51.320;9.456;2022-12-07T05:23:04;99193.47;;;3.52;95.65
70982;BME280;58640;51.320;9.456;2022-12-07T05:25:30;99194.28;;;3.43;95.70
70982;BME280;58640;51.320;9.456;2022-12-07T05:27:56;99195.53;;;3.30;95.66
70982;BME280;58640;51.320;9.456;2022-12-07T05:30:25;99193.31;;;3.44;95.46
70982;BME280;58640;51.320;9.456;2022-12-07T05:32:50;99190.41;;;3.57;95.39
70982;BME280;58640;51.320;9.456;2022-12-07T05:35:16;99188.84;;;3.54;95.01
70982;BME280;58640;51.320;9.456;2022-12-07T05:37:42;99188.59;;;3.67;94.52
70982;BME280;58640;51.320;9.456;2022-12-07T05:40:08;99181.56;;;3.56;94.39
70982;BME280;58640;51.320;9.456;2022-12-07T05:42:33;99188.88;;;3.73;93.74
70982;BME280;58640;51.320;9.456;2022-12-07T05:44:59;99194.44;;;3.61;94.18
70982;BME280;58640;51.320;9.456;2022-12-07T05:47:24;99188.03;;;3.54;94.68
70982;BME280;58640;51.320;9.456;2022-12-07T05:49:50;99190.81;;;3.52;95.01
70982;BME280;58640;51.320;9.456;2022-12-07T05:52:15;99180.47;;;3.59;94.47
70982;BME280;58640;51.320;9.456;2022-12-07T05:54:41;99181.16;;;3.61;94.35
70982;BME280;58640;51.320;9.456;2022-12-07T05:57:06;99184.25;;;3.66;92.87
70982;BME280;58640;51.320;9.456;2022-12-07T05:59:31;99182.56;;;3.55;93.97
70982;BME280;58640;51.320;9.456;2022-12-07T06:01:59;99180.06;;;3.73;93.16
70982;BME280;58640;51.320;9.456;2022-12-07T06:04:26;99175.69;;;3.72;91.74
70982;BME280;58640;51.320;9.456;2022-12-07T06:06:52;99178.34;;;3.53;93.15
70982;BME280;58640;51.320;9.456;2022-12-07T06:09:18;99180.44;;;3.40;93.67
70982;BME280;58640;51.320;9.456;2022-12-07T06:11:44;99162.81;;;3.48;93.46
70982;BME280;58640;51.320;9.456;2022-12-07T06:14:28;99172.84;;;3.35;93.76
70982;BME280;58640;51.320;9.456;2022-12-07T06:16:53;99172.34;;;3.41;93.94
70982;BME280;58640;51.320;9.456;2022-12-07T06:19:19;99167.66;;;3.24;94.61
70982;BME280;58640;51.320;9.456;2022-12-07T06:21:45;99163.59;;;3.11;95.37
70982;BME280;58640;51.320;9.456;2022-12-07T06:24:15;99156.69;;;2.98;96.36
70982;BME280;58640;51.320;9.456;2022-12-07T06:26:41;99166.19;;;2.91;96.79
70982;BME280;58640;51.320;9.456;2022-12-07T06:29:07;99174.94;;;2.82;97.26
70982;BME280;58640;51.320;9.456;2022-12-07T06:31:32;99177.47;;;2.84;97.27
70982;BME280;58640;51.320;9.456;2022-12-07T06:34:07;99176.19;;;2.78;97.66
70982;BME280;58640;51.320;9.456;2022-12-07T06:36:33;99180.09;;;3.14;95.52
70982;BME280;58640;51.320;9.456;2022-12-07T06:38:59;99174.31;;;2.99;95.47
70982;BME280;58640;51.320;9.456;2022-12-07T06:41:24;99182.72;;;3.05;94.44
70982;BME280;58640;51.320;9.456;2022-12-07T06:43:50;99183.56;;;3.15;94.03
70982;BME280;58640;51.320;9.456;2022-12-07T06:46:16;99175.34;;;3.27;93.64
70982;BME280;58640;51.320;9.456;2022-12-07T06:48:42;99172.69;;;3.27;92.54
70982;BME280;58640;51.320;9.456;2022-12-07T06:51:08;99178.16;;;3.35;93.16
70982;BME280;58640;51.320;9.456;2022-12-07T06:53:34;99187.06;;;3.06;94.28
70982;BME280;58640;51.320;9.456;2022-12-07T06:55:59;99194.63;;;3.10;94.69
70982;BME280;58640;51.320;9.456;2022-12-07T06:58:25;99193.91;;;3.08;94.57
70982;BME280;58640;51.320;9.456;2022-12-07T07:00:50;99197.25;;;3.00;95.38
70982;BME280;58640;51.320;9.456;2022-12-07T07:03:16;99196.88;;;3.15;94.29
70982;BME280;58640;51.320;9.456;2022-12-07T07:05:42;99198.31;;;3.28;93.66
70982;BME280;58640;51.320;9.456;2022-12-07T07:08:08;99197.34;;;3.29;93.41
70982;BME280;58640;51.320;9.456;2022-12-07T07:10:34;99197.91;;;3.33;92.73
70982;BME280;58640;51.320;9.456;2022-12-07T07:12:59;99197.22;;;3.40;92.79
70982;BME280;58640;51.320;9.456;2022-12-07T07:15:25;99198.72;;;3.24;93.60
70982;BME280;58640;51.320;9.456;2022-12-07T07:17:50;99191.06;;;3.30;93.00
70982;BME280;58640;51.320;9.456;2022-12-07T07:20:16;99193.84;;;3.29;93.23
70982;BME280;58640;51.320;9.456;2022-12-07T07:22:41;99194.81;;;3.28;93.21
70982;BME280;58640;51.320;9.456;2022-12-07T07:25:06;99199.69;;;3.23;93.70
70982;BME280;58640;51.320;9.456;2022-12-07T07:27:32;99195.38;;;3.31;93.55
70982;BME280;58640;51.320;9.456;2022-12-07T07:29:57;99203.09;;;3.44;93.54
70982;BME280;58640;51.320;9.456;2022-12-07T07:32:22;99200.59;;;3.42;93.17
70982;BME280;58640;51.320;9.456;2022-12-07T07:34:48;99205.31;;;3.39;92.67
70982;BME280;58640;51.320;9.456;2022-12-07T07:37:14;99207.06;;;3.49;92.55
70982;BME280;58640;51.320;9.456;2022-12-07T07:39:39;99203.66;;;3.38;93.04
70982;BME280;58640;51.320;9.456;2022-12-07T07:42:06;99200.69;;;3.31;93.72
70982;BME280;58640;51.320;9.456;2022-12-07T07:44:33;99216.94;;;3.28;94.11
70982;BME280;58640;51.320;9.456;2022-12-07T07:46:58;99212.34;;;3.40;93.20
70982;BME280;58640;51.320;9.456;2022-12-07T07:49:24;99212.31;;;3.30;93.46
70982;BME280;58640;51.320;9.456;2022-12-07T07:51:57;99209.38;;;3.33;94.01
70982;BME280;58640;51.320;9.456;2022-12-07T07:54:22;99209.41;;;3.43;93.37
70982;BME280;58640;51.320;9.456;2022-12-07T07:56:47;99209.13;;;3.46;93.85
70982;BME280;58640;51.320;9.456;2022-12-07T07:59:14;99215.00;;;3.40;93.76
70982;BME280;58640;51.320;9.456;2022-12-07T08:01:39;99211.81;;;3.55;93.44
70982;BME280;58640;51.320;9.456;2022-12-07T08:04:05;99211.53;;;3.58;93.11
70982;BME280;58640;51.320;9.456;2022-12-07T08:06:30;99215.03;;;3.59;92.11
70982;BME280;58640;51.320;9.456;2022-12-07T08:08:56;99213.59;;;3.45;92.87
70982;BME280;58640;51.320;9.456;2022-12-07T08:11:24;99202.03;;;3.65;91.10
70982;BME280;58640;51.320;9.456;2022-12-07T08:13:57;99200.63;;;3.80;89.61
70982;BME280;58640;51.320;9.456;2022-12-07T08:16:24;99208.03;;;3.58;90.89
70982;BME280;58640;51.320;9.456;2022-12-07T08:18:55;99217.84;;;3.57;91.34
70982;BME280;58640;51.320;9.456;2022-12-07T08:21:22;99202.56;;;3.69;90.69
70982;BME280;58640;51.320;9.456;2022-12-07T08:23:48;99203.00;;;3.64;91.01
70982;BME280;58640;51.320;9.456;2022-12-07T08:26:16;99211.47;;;3.30;92.17
70982;BME280;58640;51.320;9.456;2022-12-07T08:28:42;99215.31;;;3.16;93.56
70982;BME280;58640;51.320;9.456;2022-12-07T08:31:12;99208.69;;;3.41;92.03
70982;BME280;58640;51.320;9.456;2022-12-07T08:33:38;99218.63;;;3.39;92.46
70982;BME280;58640;51.320;9.456;2022-12-07T08:36:08;99220.97;;;3.32;92.50
70982;BME280;58640;51.320;9.456;2022-12-07T08:38:38;99222.00;;;3.41;92.89
70982;BME280;58640;51.320;9.456;2022-12-07T08:41:05;99223.69;;;3.51;92.03
70982;BME280;58640;51.320;9.456;2022-12-07T08:43:31;99223.97;;;3.58;91.55
70982;BME280;58640;51.320;9.456;2022-12-07T08:46:02;99225.84;;;3.67;90.63
70982;BME280;58640;51.320;9.456;2022-12-07T08:48:29;99216.88;;;3.68;90.84
70982;BME280;58640;51.320;9.456;2022-12-07T08:50:55;99220.41;;;4.06;89.83
70982;BME280;58640;51.320;9.456;2022-12-07T08:53:21;99219.81;;;4.41;86.78
70982;BME280;58640;51.320;9.456;2022-12-07T08:55:47;99222.31;;;4.52;86.19
70982;BME280;58640;51.320;9.456;2022-12-07T08:58:13;99226.44;;;4.83;83.97
70982;BME280;58640;51.320;9.456;2022-12-07T09:00:38;99225.03;;;4.89;84.01
70982;BME280;58640;51.320;9.456;2022-12-07T09:03:04;99207.41;;;5.15;83.08
70982;BME280;58640;51.320;9.456;2022-12-07T09:05:29;99212.91;;;5.04;81.36
70982;BME280;58640;51.320;9.456;2022-12-07T09:07:57;99211.28;;;5.20;82.12
70982;BME280;58640;51.320;9.456;2022-12-07T09:10:22;99208.47;;;5.22;82.35
70982;BME280;58640;51.320;9.456;2022-12-07T09:12:48;99216.16;;;4.98;81.92
70982;BME280;58640;51.320;9.456;2022-12-07T09:15:14;99209.06;;;5.16;81.77
70982;BME280;58640;51.320;9.456;2022-12-07T09:17:40;99212.72;;;5.15;81.10
70982;BME280;58640;51.320;9.456;2022-12-07T09:20:06;99215.13;;;5.08;80.78
70982;BME280;58640;51.320;9.456;2022-12-07T09:22:32;99223.69;;;5.39;80.55
70982;BME280;58640;51.320;9.456;2022-12-07T09:24:58;99225.00;;;5.52;80.15
70982;BME280;58640;51.320;9.456;2022-12-07T09:27:24;99222.16;;;5.36;80.48
70982;BME280;58640;51.320;9.456;2022-12-07T09:29:49;99224.66;;;5.38;80.67
70982;BME280;58640;51.320;9.456;2022-12-07T09:32:15;99224.56;;;5.30;80.58
70982;BME280;58640;51.320;9.456;2022-12-07T09:34:40;99226.59;;;5.18;82.33
70982;BME280;58640;51.320;9.456;2022-12-07T09:37:06;99228.19;;;5.02;83.42
70982;BME280;58640;51.320;9.456;2022-12-07T09:39:31;99226.41;;;4.93;84.01
70982;BME280;58640;51.320;9.456;2022-12-07T09:41:57;99223.47;;;4.96;81.75
70982;BME280;58640;51.320;9.456;2022-12-07T09:44:25;99228.13;;;4.84;83.49
70982;BME280;58640;51.320;9.456;2022-12-07T09:46:52;99222.63;;;4.95;82.89
70982;BME280;58640;51.320;9.456;2022-12-07T09:49:20;99220.69;;;5.24;81.28
70982;BME280;58640;51.320;9.456;2022-12-07T09:51:48;99222.69;;;5.13;84.01
70982;BME280;58640;51.320;9.456;2022-12-07T09:54:24;99220.78;;;4.96;83.88
70982;BME280;58640;51.320;9.456;2022-12-07T09:56:49;99225.22;;;4.68;86.08
70982;BME280;58640;51.320;9.456;2022-12-07T09:59:18;99228.00;;;4.76;86.59
70982;BME280;58640;51.320;9.456;2022-12-07T10:01:46;99220.47;;;5.08;83.83
70982;BME280;58640;51.320;9.456;2022-12-07T10:04:20;99219.91;;;5.05;83.94
70982;BME280;58640;51.320;9.456;2022-12-07T10:06:46;99221.78;;;4.85;84.33
70982;BME280;58640;51.320;9.456;2022-12-07T10:09:14;99215.44;;;4.59;84.00
70982;BME280;58640;51.320;9.456;2022-12-07T10:14:29;99217.66;;;4.64;83.65
70982;BME280;58640;51.320;9.456;2022-12-07T10:16:55;99219.50;;;4.53;82.62
70982;BME280;58640;51.320;9.456;2022-12-07T10:19:30;99217.00;;;4.42;83.42
70982;BME280;58640;51.320;9.456;2022-12-07T10:22:10;99213.50;;;4.32;84.60
70982;BME280;58640;51.320;9.456;2022-12-07T10:24:38;99216.44;;;4.29;86.03
70982;BME280;58640;51.320;9.456;2022-12-07T10:27:17;99213.50;;;4.32;85.46
70982;BME280;58640;51.320;9.456;2022-12-07T10:29:47;99205.75;;;4.58;83.74
70982;BME280;58640;51.320;9.456;2022-12-07T10:34:39;99199.81;;;4.18;84.73
70982;BME280;58640;51.320;9.456;2022-12-07T10:39:46;99200.03;;;4.53;84.15
70982;BME280;58640;51.320;9.456;2022-12-07T10:42:25;99190.88;;;4.65;83.21
70982;BME280;58640;51.320;9.456;2022-12-07T10:47:39;99188.78;;;4.69;83.77
70982;BME280;58640;51.320;9.456;2022-12-07T10:58:20;99192.41;;;5.31;80.93
70982;BME280;58640;51.320;9.456;2022-12-07T11:01:21;99194.25;;;5.31;81.21
70982;BME280;58640;51.320;9.456;2022-12-07T11:04:12;99191.47;;;4.96;83.69
70982;BME280;58640;51.320;9.456;2022-12-07T11:12:07;99183.41;;;5.15;83.81
70982;BME280;58640;51.320;9.456;2022-12-07T11:14:41;99183.75;;;5.29;83.07
70982;BME280;58640;51.320;9.456;2022-12-07T11:17:26;99184.50;;;5.39;81.59
70982;BME280;58640;51.320;9.456;2022-12-07T11:25:32;99168.69;;;4.74;84.48
70982;BME280;58640;51.320;9.456;2022-12-07T11:31:34;99163.06;;;4.31;86.15
70982;BME280;58640;51.320;9.456;2022-12-07T11:34:06;99157.00;;;4.48;84.30
70982;BME280;58640;51.320;9.456;2022-12-07T11:36:47;99148.94;;;4.21;85.70
70982;BME280;58640;51.320;9.456;2022-12-07T11:39:35;99156.09;;;4.11;85.20
70982;BME280;58640;51.320;9.456;2022-12-07T11:42:22;99161.72;;;4.08;84.77
70982;BME280;58640;51.320;9.456;2022-12-07T11:45:00;99158.91;;;4.09;85.27
70982;BME280;58640;51.320;9.456;2022-12-07T11:47:45;99148.50;;;4.35;84.49
70982;BME280;58640;51.320;9.456;2022-12-07T11:50:37;99157.91;;;4.66;82.15
70982;BME280;58640;51.320;9.456;2022-12-07T11:55:59;99143.00;;;4.83;82.79
70982;BME280;58640;51.320;9.456;2022-12-07T11:58:49;99146.19;;;4.96;82.55
70982;BME280;58640;51.320;9.456;2022-12-07T12:06:34;99138.03;;;5.24;80.49
70982;BME280;58640;51.320;9.456;2022-12-07T12:12:07;99135.94;;;5.45;79.53
70982;BME280;58640;51.320;9.456;2022-12-07T12:20:41;99126.75;;;5.30;79.27
70982;BME280;58640;51.320;9.456;2022-12-07T12:23:21;99129.13;;;5.33;79.44
70982;BME280;58640;51.320;9.456;2022-12-07T12:25:53;99123.94;;;5.32;79.84
70982;BME280;58640;51.320;9.456;2022-12-07T12:28:24;99121.19;;;5.24;79.18
70982;BME280;58640;51.320;9.456;2022-12-07T12:31:15;99126.91;;;5.02;79.45
70982;BME280;58640;51.320;9.456;2022-12-07T12:33:44;99117.16;;;4.93;79.94
70982;BME280;58640;51.320;9.456;2022-12-07T12:36:21;99120.38;;;4.96;80.75
70982;BME280;58640;51.320;9.456;2022-12-07T12:47:37;99117.22;;;4.83;83.04
70982;BME280;58640;51.320;9.456;2022-12-07T12:50:29;99124.19;;;4.57;84.72
70982;BME280;58640;51.320;9.456;2022-12-07T12:53:02;99136.69;;;4.37;85.75
70982;BME280;58640;51.320;9.456;2022-12-07T13:00:44;99117.44;;;3.97;89.40
70982;BME280;58640;51.320;9.456;2022-12-07T13:09:54;99116.13;;;4.30;88.07
70982;BME280;58640;51.320;9.456;2022-12-07T13:12:20;99112.63;;;4.29;88.11
70982;BME280;58640;51.320;9.456;2022-12-07T13:14:53;99107.69;;;4.44;86.95
70982;BME280;58640;51.320;9.456;2022-12-07T13:25:02;99101.22;;;4.10;88.75
70982;BME280;58640;51.320;9.456;2022-12-07T13:27:28;99101.31;;;4.18;88.62
70982;BME280;58640;51.320;9.456;2022-12-07T13:29:56;99108.06;;;4.12;88.43
70982;BME280;58640;51.320;9.456;2022-12-07T13:32:27;99103.56;;;4.22;87.63
70982;BME280;58640;51.320;9.456;2022-12-07T13:34:53;99101.47;;;4.16;88.67
70982;BME280;58640;51.320;9.456;2022-12-07T13:37:28;99101.19;;;4.19;86.73
70982;BME280;58640;51.320;9.456;2022-12-07T13:39:59;99096.56;;;4.12;87.77
70982;BME280;58640;51.320;9.456;2022-12-07T13:44:53;99083.41;;;4.10;87.85
70982;BME280;58640;51.320;9.456;2022-12-07T13:47:35;99089.16;;;3.96;86.71
70982;BME280;58640;51.320;9.456;2022-12-07T13:50:25;99092.69;;;3.87;87.67
70982;BME280;58640;51.320;9.456;2022-12-07T13:52:55;99099.69;;;3.88;88.32
70982;BME280;58640;51.320;9.456;2022-12-07T13:55:20;99097.59;;;3.92;88.62
70982;BME280;58640;51.320;9.456;2022-12-07T13:57:49;99100.94;;;3.94;88.53
70982;BME280;58640;51.320;9.456;2022-12-07T14:00:16;99093.50;;;3.97;88.31
70982;BME280;58640;51.320;9.456;2022-12-07T14:02:59;99092.53;;;4.08;87.25
70982;BME280;58640;51.320;9.456;2022-12-07T14:05:32;99090.03;;;3.97;87.78
70982;BME280;58640;51.320;9.456;2022-12-07T14:08:06;99092.66;;;4.06;87.20
70982;BME280;58640;51.320;9.456;2022-12-07T14:18:39;99089.28;;;4.04;88.20
70982;BME280;58640;51.320;9.456;2022-12-07T14:23:40;99077.94;;;4.02;88.41
70982;BME280;58640;51.320;9.456;2022-12-07T14:26:19;99093.25;;;4.00;88.54
70982;BME280;58640;51.320;9.456;2022-12-07T14:28:46;99082.44;;;4.02;88.60
70982;BME280;58640;51.320;9.456;2022-12-07T14:31:14;99077.94;;;4.02;89.11
70982;BME280;58640;51.320;9.456;2022-12-07T14:33:40;99078.25;;;3.99;89.70
70982;BME280;58640;51.320;9.456;2022-12-07T14:36:13;99069.03;;;3.94;90.50
70982;BME280;58640;51.320;9.456;2022-12-07T14:38:39;99072.09;;;3.99;90.64
70982;BME280;58640;51.320;9.456;2022-12-07T14:41:06;99065.69;;;4.28;87.83
70982;BME280;58640;51.320;9.456;2022-12-07T14:43:59;99065.28;;;4.23;85.65
70982;BME280;58640;51.320;9.456;2022-12-07T14:46:25;99062.06;;;4.57;84.18
70982;BME280;58640;51.320;9.456;2022-12-07T14:48:50;99069.59;;;4.43;83.41
70982;BME280;58640;51.320;9.456;2022-12-07T14:51:16;99067.06;;;4.32;83.48
70982;BME280;58640;51.320;9.456;2022-12-07T14:53:44;99065.81;;;4.36;82.92
70982;BME280;58640;51.320;9.456;2022-12-07T14:56:11;99062.25;;;4.45;81.18
70982;BME280;58640;51.320;9.456;2022-12-07T14:58:36;99066.56;;;4.29;82.23
70982;BME280;58640;51.320;9.456;2022-12-07T15:01:02;99070.91;;;4.20;82.49
70982;BME280;58640;51.320;9.456;2022-12-07T15:03:28;99067.31;;;4.02;83.53
70982;BME280;58640;51.320;9.456;2022-12-07T15:05:54;99062.72;;;3.95;84.31
70982;BME280;58640;51.320;9.456;2022-12-07T15:08:20;99057.56;;;3.84;85.04
70982;BME280;58640;51.320;9.456;2022-12-07T15:10:45;99059.06;;;3.86;84.87
70982;BME280;58640;51.320;9.456;2022-12-07T15:13:10;99066.66;;;3.72;84.91
70982;BME280;58640;51.320;9.456;2022-12-07T15:15:54;99055.78;;;3.65;84.53
70982;BME280;58640;51.320;9.456;2022-12-07T15:18:20;99059.81;;;3.69;84.55
70982;BME280;58640;51.320;9.456;2022-12-07T15:20:46;99061.78;;;3.58;85.40
70982;BME280;58640;51.320;9.456;2022-12-07T15:23:12;99056.88;;;3.72;84.25
70982;BME280;58640;51.320;9.456;2022-12-07T15:25:41;99055.22;;;3.62;84.24
70982;BME280;58640;51.320;9.456;2022-12-07T15:28:07;99055.22;;;3.62;84.75